Terminal Aerodrome Forecast
Issued by NWS

Current Version | Previous Version | Text Only | Print | Product List | Glossary On
Versions: 1 2 3 4 5 6 7 8 9 10 11 12 13 14 15 16 17 18 19 20 21 22 23 24 25 26 27 28 29 30 31 32 33 34
000
FTUS44 KFWD 272341
TAFAFW
TAF
KAFW 272341Z 2800/2824 04012KT 1SM -SN BR BKN007 BKN015
      TEMPO 2800/2803 3SM -SN BR SCT008 BKN020 OVC050
     FM280800 06009KT 2SM -FZDZ BR OVC008
      TEMPO 2811/2815 3/4SM BR OVC004
     FM282000 03008KT 3SM -DZ BR OVC006=

USA.gov is the U.S. government's official web portal to all federal, state and local government web resources and services.